< < Back
Terminal Aerodrome Forecast


Current Version              Previous Versions:   1  2  3  4  5  6  7  8  9  

Terminal Aerodrome Forecast

689
FTUS44 KMRX 060525
TAFCHA
TAF
KCHA 060525Z 0606/0706 VRB03KT P6SM SCT250
     FM061800 36004KT P6SM OVC250=

Latest METAR

721
SAUS80 KWBC 060700 RRB
MTRCHA
METAR KCHA 060653Z AUTO 26003KT 10SM CLR M01/M04 A3040 RMK AO2 SLP297
T10061039


USA.gov is the U.S. government's official web portal to all federal, state and local government web resources and services.